createdAt,value
2023-01-25T00:01:34.323Z,-6.58
2023-01-25T00:11:38.706Z,-6.56
2023-01-25T00:21:41.782Z,-6.53
2023-01-25T00:32:02.815Z,-6.56
2023-01-25T00:42:05.967Z,-6.52
2023-01-25T00:52:10.659Z,-6.51
2023-01-25T01:02:13.758Z,-6.48
2023-01-25T01:12:18.049Z,-6.45
2023-01-25T01:22:20.930Z,-6.42
2023-01-25T01:32:25.361Z,-6.40
2023-01-25T01:42:28.351Z,-6.37
2023-01-25T01:52:36.220Z,-6.35
2023-01-25T02:02:40.215Z,-6.32
2023-01-25T02:12:45.794Z,-6.30
2023-01-25T02:22:56.954Z,-6.27
2023-01-25T02:33:01.429Z,-6.24
2023-01-25T02:43:04.247Z,-6.21
2023-01-25T02:53:08.503Z,-6.23
2023-01-25T03:03:11.634Z,-6.20
2023-01-25T03:13:15.863Z,-6.16
2023-01-25T03:23:18.747Z,-6.13
2023-01-25T03:33:22.890Z,-6.10
2023-01-25T03:43:26.192Z,-6.07
2023-01-25T03:53:32.290Z,-6.04
2023-01-25T04:03:35.542Z,-6.02
2023-01-25T04:13:40.243Z,-6.00
2023-01-25T04:23:43.063Z,-5.97
2023-01-25T04:33:48.329Z,-5.94
2023-01-25T04:43:51.789Z,-5.91
2023-01-25T04:53:56.468Z,-5.87
2023-01-25T05:03:59.494Z,-5.85
2023-01-25T05:14:03.770Z,-5.81
2023-01-25T05:24:07.312Z,-5.78
2023-01-25T05:34:11.790Z,-5.75
2023-01-25T05:44:20.141Z,-5.73
2023-01-25T05:54:24.618Z,-5.72
2023-01-25T06:04:39.259Z,-5.68
2023-01-25T06:14:43.677Z,-5.67
2023-01-25T06:24:46.570Z,-5.63
2023-01-25T06:34:53.812Z,-5.60
2023-01-25T06:44:56.900Z,-5.55
2023-01-25T06:55:01.356Z,-5.51
2023-01-25T07:05:04.703Z,-5.46
2023-01-25T07:15:10.537Z,-5.41
2023-01-25T07:25:14.448Z,-5.35
2023-01-25T07:35:18.743Z,-5.30
2023-01-25T07:45:21.865Z,-5.23
2023-01-25T07:55:26.326Z,-5.15
2023-01-25T08:05:31.027Z,-5.09
2023-01-25T08:15:35.599Z,-5.01
2023-01-25T08:25:39.778Z,-4.93
2023-01-25T08:35:54.168Z,-4.86
2023-01-25T08:45:58.856Z,-4.74
2023-01-25T08:56:11.128Z,-4.66
2023-01-25T09:06:14.352Z,-4.57
2023-01-25T09:16:22.986Z,-4.44
2023-01-25T09:26:34.350Z,-4.34
2023-01-25T09:36:38.934Z,-4.24
2023-01-25T09:46:44.716Z,-4.15
2023-01-25T09:56:52.233Z,-4.07
2023-01-25T10:07:01.716Z,-4.00
2023-01-25T10:17:17.450Z,-3.89
2023-01-25T10:27:29.791Z,-3.79
2023-01-25T10:37:36.362Z,-3.71
2023-01-25T10:47:42.607Z,-3.65
2023-01-25T10:57:52.967Z,-3.59
2023-01-25T11:07:56.444Z,-3.54
2023-01-25T11:18:12.871Z,-3.50
2023-01-25T11:28:19.618Z,-3.46
2023-01-25T11:38:27.293Z,-3.41
2023-01-25T11:49:00.263Z,-3.41
2023-01-25T11:59:27.382Z,-3.39
2023-01-25T12:09:50.950Z,-3.34
2023-01-25T12:20:09.006Z,-3.29
2023-01-25T12:30:16.966Z,-3.26
2023-01-25T12:40:29.776Z,-3.25
2023-01-25T12:50:47.729Z,-3.22
2023-01-25T13:00:59.587Z,-3.25
2023-01-25T13:11:12.949Z,-3.30
2023-01-25T13:21:42.739Z,-3.33
2023-01-25T13:31:53.759Z,-3.35
2023-01-25T13:42:04.571Z,-3.35
2023-01-25T13:52:07.834Z,-3.34
2023-01-25T14:02:20.369Z,-3.35
2023-01-25T14:12:35.729Z,-3.35
2023-01-25T14:22:40.178Z,-3.35
2023-01-25T14:32:46.447Z,-3.36
2023-01-25T14:42:56.009Z,-3.37
2023-01-25T14:53:09.954Z,-3.42
2023-01-25T15:03:17.701Z,-3.45
2023-01-25T15:13:23.184Z,-3.48
2023-01-25T15:23:30.177Z,-3.50
2023-01-25T15:33:36.257Z,-3.53
2023-01-25T15:43:41.132Z,-3.55
2023-01-25T15:53:44.094Z,-3.57
2023-01-25T16:03:48.553Z,-3.58
2023-01-25T16:13:51.651Z,-3.63
2023-01-25T16:23:56.463Z,-3.67
2023-01-25T16:33:59.902Z,-3.69
2023-01-25T16:44:04.696Z,-3.71
2023-01-25T16:54:11.542Z,-3.74
2023-01-25T17:04:20.214Z,-3.76
2023-01-25T17:14:25.613Z,-3.77
2023-01-25T17:24:30.317Z,-3.79
2023-01-25T17:34:33.396Z,-3.84
2023-01-25T17:44:38.023Z,-3.84
2023-01-25T17:54:41.157Z,-3.90
2023-01-25T18:04:45.576Z,-3.93
2023-01-25T18:14:48.436Z,-3.95
2023-01-25T18:24:52.824Z,-3.95
2023-01-25T18:34:57.527Z,-3.99
2023-01-25T18:45:11.057Z,-4.04
2023-01-25T18:55:17.245Z,-4.09
2023-01-25T19:05:22.182Z,-4.11
2023-01-25T19:15:25.091Z,-4.09
2023-01-25T19:25:32.630Z,-4.08
2023-01-25T19:35:35.496Z,-4.08
2023-01-25T19:45:39.787Z,-4.06
2023-01-25T19:55:43.578Z,-4.06
2023-01-25T20:05:57.650Z,-4.05
2023-01-25T20:16:00.678Z,-4.03
2023-01-25T20:26:08.971Z,-4.03
2023-01-25T20:36:13.787Z,-4.02
2023-01-25T20:46:19.259Z,-4.00
2023-01-25T20:56:22.560Z,-3.99
2023-01-25T21:06:27.998Z,-3.97
2023-01-25T21:16:33.411Z,-3.98
2023-01-25T21:26:38.650Z,-3.95
2023-01-25T21:36:42.551Z,-3.93
2023-01-25T21:47:12.373Z,-3.91
2023-01-25T21:57:11.786Z,-3.91
2023-01-25T22:07:16.163Z,-3.89
2023-01-25T22:17:20.090Z,-3.88
2023-01-25T22:27:41.822Z,-3.86
2023-01-25T22:37:44.713Z,-3.84
2023-01-25T22:47:49.057Z,-3.85
2023-01-25T22:57:51.957Z,-3.83
2023-01-25T23:07:56.563Z,-3.82
2023-01-25T23:18:17.900Z,-3.81
2023-01-25T23:28:22.070Z,-3.79
2023-01-25T23:38:24.940Z,-3.78
2023-01-25T23:48:29.259Z,-3.78
2023-01-25T23:58:34.431Z,-3.78
